createdAt,value
2019-03-25T00:01:20.076Z,44.00
2019-03-25T00:06:21.474Z,44.00
2019-03-25T00:11:22.871Z,44.10
2019-03-25T00:16:24.314Z,44.10
2019-03-25T00:21:25.754Z,44.10
2019-03-25T00:26:27.141Z,44.10
2019-03-25T00:31:28.576Z,44.10
2019-03-25T00:36:29.966Z,44.10
2019-03-25T00:41:31.331Z,44.10
2019-03-25T00:46:32.694Z,44.10
2019-03-25T00:51:34.026Z,44.10
2019-03-25T00:56:35.434Z,44.10
2019-03-25T01:01:36.788Z,44.10
2019-03-25T01:06:38.122Z,44.10
2019-03-25T01:11:48.732Z,44.10
2019-03-25T01:16:42.692Z,44.10
2019-03-25T01:21:44.047Z,44.10
2019-03-25T01:26:45.388Z,44.10
2019-03-25T01:31:46.735Z,44.20
2019-03-25T01:36:48.100Z,44.20
2019-03-25T01:41:49.524Z,44.20
2019-03-25T01:46:50.925Z,44.20
2019-03-25T01:51:52.258Z,44.20
2019-03-25T01:56:53.779Z,44.20
2019-03-25T02:01:55.118Z,44.20
2019-03-25T02:06:56.497Z,44.30
2019-03-25T02:11:58.038Z,44.30
2019-03-25T02:16:59.443Z,44.40
2019-03-25T02:22:00.875Z,45.00
2019-03-25T02:27:02.224Z,45.00
2019-03-25T02:32:03.637Z,44.40
2019-03-25T02:37:05.104Z,44.40
2019-03-25T02:42:06.530Z,44.50
2019-03-25T02:47:07.929Z,44.50
2019-03-25T02:52:09.267Z,44.60
2019-03-25T02:57:10.649Z,44.70
2019-03-25T03:02:11.997Z,44.60
2019-03-25T03:07:13.398Z,44.70
2019-03-25T03:12:14.844Z,44.60
2019-03-25T03:17:16.179Z,44.70
2019-03-25T03:22:17.563Z,44.80
2019-03-25T03:27:18.919Z,44.70
2019-03-25T03:32:20.272Z,45.40
2019-03-25T03:37:21.655Z,44.90
2019-03-25T03:42:23.386Z,44.90
2019-03-25T03:47:24.814Z,44.90
2019-03-25T03:52:26.129Z,44.90
2019-03-25T03:57:27.902Z,44.90
2019-03-25T04:02:29.316Z,44.90
2019-03-25T04:07:30.840Z,45.00
2019-03-25T04:12:32.261Z,45.00
2019-03-25T04:17:33.691Z,45.00
2019-03-25T04:22:35.129Z,45.00
2019-03-25T04:27:36.504Z,45.00
2019-03-25T04:32:37.907Z,45.00
2019-03-25T04:37:39.312Z,45.10
2019-03-25T04:42:40.691Z,45.10
2019-03-25T04:47:42.073Z,45.10
2019-03-25T04:52:43.546Z,45.40
2019-03-25T04:57:45.093Z,45.30
2019-03-25T05:02:46.437Z,45.20
2019-03-25T05:07:47.841Z,45.40
2019-03-25T05:12:49.179Z,45.30
2019-03-25T05:17:50.543Z,45.30
2019-03-25T05:22:52.112Z,45.40
2019-03-25T05:27:53.483Z,44.90
2019-03-25T05:32:54.834Z,44.00
2019-03-25T05:37:56.200Z,43.10
2019-03-25T05:42:57.574Z,42.80
2019-03-25T05:47:58.907Z,42.70
2019-03-25T05:53:00.254Z,42.80
2019-03-25T05:58:01.635Z,43.00
2019-03-25T06:03:03.136Z,43.10
2019-03-25T06:08:04.566Z,43.30
2019-03-25T06:13:05.931Z,43.40
2019-03-25T06:18:07.315Z,43.50
2019-03-25T06:23:08.754Z,43.70
2019-03-25T06:28:10.241Z,43.90
2019-03-25T06:33:12.849Z,44.00
2019-03-25T06:38:14.418Z,44.30
2019-03-25T06:43:15.869Z,44.20
2019-03-25T06:48:17.211Z,44.20
2019-03-25T06:53:18.678Z,44.70
2019-03-25T06:58:20.047Z,44.40
2019-03-25T07:03:21.521Z,44.40
2019-03-25T07:08:22.917Z,44.50
2019-03-25T07:13:24.851Z,44.60
2019-03-25T07:18:26.195Z,44.70
2019-03-25T07:23:27.622Z,44.70
2019-03-25T07:28:28.942Z,44.70
2019-03-25T07:33:30.342Z,44.80
2019-03-25T07:38:31.770Z,44.70
2019-03-25T07:43:33.159Z,44.60
2019-03-25T07:48:34.552Z,44.20
2019-03-25T07:53:35.860Z,43.90
2019-03-25T07:58:37.234Z,43.70
2019-03-25T08:03:38.588Z,43.50
2019-03-25T08:08:40.024Z,43.80
2019-03-25T08:13:41.456Z,43.80
2019-03-25T08:18:42.906Z,43.70
2019-03-25T08:23:44.244Z,43.60
2019-03-25T08:28:45.650Z,43.60
2019-03-25T08:33:47.105Z,43.60
2019-03-25T08:38:48.561Z,43.80
2019-03-25T08:43:50.460Z,44.10
2019-03-25T08:48:52.014Z,44.10
2019-03-25T08:53:53.408Z,44.10
2019-03-25T08:58:54.838Z,44.30
2019-03-25T09:03:56.305Z,44.30
2019-03-25T09:08:57.714Z,44.50
2019-03-25T09:13:59.118Z,44.70
2019-03-25T09:19:00.499Z,44.50
2019-03-25T09:24:02.065Z,44.50
2019-03-25T09:29:03.556Z,44.50
2019-03-25T09:34:05.095Z,44.30
2019-03-25T09:39:06.895Z,44.30
2019-03-25T09:44:08.426Z,44.70
2019-03-25T09:49:09.811Z,43.80
2019-03-25T09:54:11.190Z,43.90
2019-03-25T09:59:12.639Z,44.10
2019-03-25T10:04:14.052Z,44.10
2019-03-25T10:09:15.456Z,44.20
2019-03-25T10:14:16.831Z,44.20
2019-03-25T10:19:18.210Z,44.30
2019-03-25T10:24:27.397Z,45.00
2019-03-25T10:29:22.909Z,44.20
2019-03-25T10:34:24.222Z,44.00
2019-03-25T10:39:25.795Z,44.00
2019-03-25T10:44:27.165Z,44.00
2019-03-25T10:49:28.529Z,44.00
2019-03-25T10:54:30.012Z,44.00
2019-03-25T10:59:31.481Z,44.30
2019-03-25T11:04:32.832Z,44.00
2019-03-25T11:09:34.208Z,43.80
2019-03-25T11:14:35.639Z,44.10
2019-03-25T11:19:37.110Z,43.90
2019-03-25T11:24:38.475Z,43.80
2019-03-25T11:29:39.866Z,43.90
2019-03-25T11:34:41.194Z,43.90
2019-03-25T11:39:42.582Z,44.00
2019-03-25T11:44:43.955Z,43.70
2019-03-25T11:49:45.399Z,43.80
2019-03-25T11:54:46.755Z,43.70
2019-03-25T11:59:48.154Z,43.70
2019-03-25T12:04:49.588Z,43.70
2019-03-25T12:09:50.966Z,43.70
2019-03-25T12:14:52.330Z,43.70
2019-03-25T12:19:53.707Z,43.70
2019-03-25T12:24:55.044Z,43.80
2019-03-25T12:29:56.418Z,43.70
2019-03-25T12:34:57.783Z,43.70
2019-03-25T12:39:59.158Z,43.70
2019-03-25T12:45:00.519Z,43.70
2019-03-25T12:50:06.301Z,43.70
2019-03-25T12:55:07.857Z,43.60
2019-03-25T13:00:09.795Z,43.50
2019-03-25T13:05:11.280Z,43.50
2019-03-25T13:10:12.875Z,43.40
2019-03-25T13:15:14.318Z,43.40
2019-03-25T13:20:15.694Z,43.50
2019-03-25T13:25:17.059Z,43.60
2019-03-25T13:30:18.615Z,43.60
2019-03-25T13:35:20.007Z,43.30
2019-03-25T13:40:21.541Z,43.20
2019-03-25T13:45:22.971Z,43.10
2019-03-25T13:50:24.368Z,43.10
2019-03-25T13:55:26.772Z,43.00
2019-03-25T14:00:36.894Z,43.10
2019-03-25T14:05:38.341Z,43.30
2019-03-25T14:10:39.760Z,43.30
2019-03-25T14:15:41.155Z,43.30
2019-03-25T14:20:42.592Z,43.40
2019-03-25T14:25:43.976Z,43.50
2019-03-25T14:30:45.422Z,43.50
2019-03-25T14:35:46.782Z,43.70
2019-03-25T14:40:48.179Z,43.70
2019-03-25T14:45:49.689Z,43.80
2019-03-25T14:50:52.020Z,43.90
2019-03-25T14:55:53.431Z,43.90
2019-03-25T15:00:54.847Z,44.50
2019-03-25T15:05:56.236Z,43.80
2019-03-25T15:10:57.760Z,43.90
2019-03-25T15:15:59.349Z,43.70
2019-03-25T15:21:00.709Z,43.50
2019-03-25T15:26:02.184Z,43.50
2019-03-25T15:31:03.606Z,43.40
2019-03-25T15:36:05.022Z,43.50
2019-03-25T15:41:06.388Z,43.50
2019-03-25T15:46:07.937Z,43.60
2019-03-25T15:51:09.287Z,43.60
2019-03-25T15:56:10.659Z,43.70
2019-03-25T16:01:12.035Z,43.70
2019-03-25T16:06:13.503Z,43.70
2019-03-25T16:11:14.865Z,43.80
2019-03-25T16:16:16.239Z,43.90
2019-03-25T16:21:17.575Z,43.80
2019-03-25T16:26:18.968Z,43.80
2019-03-25T16:31:20.326Z,43.80
2019-03-25T16:36:21.665Z,43.80
2019-03-25T16:41:23.191Z,43.90
2019-03-25T16:46:24.604Z,43.80
2019-03-25T16:51:25.952Z,43.80
2019-03-25T16:56:27.318Z,43.70
2019-03-25T17:01:28.706Z,43.60
2019-03-25T17:06:30.072Z,43.60
2019-03-25T17:11:31.443Z,43.70
2019-03-25T17:16:32.791Z,43.70
2019-03-25T17:21:34.163Z,43.70
2019-03-25T17:26:42.438Z,43.70
2019-03-25T17:31:38.851Z,43.90
2019-03-25T17:36:40.286Z,43.90
2019-03-25T17:41:41.781Z,44.00
2019-03-25T17:46:43.114Z,44.00
2019-03-25T17:51:44.535Z,44.10
2019-03-25T17:56:45.953Z,44.10
2019-03-25T18:01:47.340Z,44.10
2019-03-25T18:06:48.771Z,44.20
2019-03-25T18:11:50.173Z,44.30
2019-03-25T18:16:51.529Z,44.30
2019-03-25T18:21:52.971Z,44.20
2019-03-25T18:26:54.336Z,44.20
2019-03-25T18:31:55.727Z,44.10
2019-03-25T18:36:57.058Z,44.00
2019-03-25T18:41:58.449Z,43.90
2019-03-25T18:46:59.834Z,44.00
2019-03-25T18:52:01.159Z,44.10
2019-03-25T18:57:02.658Z,44.10
2019-03-25T19:02:04.415Z,44.10
2019-03-25T19:07:05.782Z,44.20
2019-03-25T19:12:07.120Z,44.90
2019-03-25T19:17:08.547Z,44.30
2019-03-25T19:22:12.612Z,44.30
2019-03-25T19:27:13.214Z,44.20
2019-03-25T19:32:14.646Z,44.10
2019-03-25T19:37:16.019Z,44.00
2019-03-25T19:42:17.419Z,44.10
2019-03-25T19:47:18.714Z,44.00
2019-03-25T19:52:20.121Z,44.20
2019-03-25T19:57:21.444Z,44.70
2019-03-25T20:02:23.080Z,44.10
2019-03-25T20:07:24.493Z,44.00
2019-03-25T20:12:25.933Z,44.00
2019-03-25T20:17:27.308Z,44.00
2019-03-25T20:22:28.728Z,44.10
2019-03-25T20:27:30.056Z,44.10
2019-03-25T20:32:32.290Z,44.10
2019-03-25T20:37:33.848Z,44.10
2019-03-25T20:42:35.263Z,44.20
2019-03-25T20:47:36.797Z,44.20
2019-03-25T20:52:38.229Z,44.20
2019-03-25T20:57:40.698Z,44.30
2019-03-25T21:02:45.334Z,44.30
2019-03-25T21:07:45.678Z,44.30
2019-03-25T21:12:47.015Z,44.30
2019-03-25T21:17:48.438Z,44.50
2019-03-25T21:22:49.872Z,44.40
2019-03-25T21:27:51.377Z,44.30
2019-03-25T21:32:58.267Z,44.20
2019-03-25T21:37:56.316Z,44.10
2019-03-25T21:42:57.681Z,44.00
2019-03-25T21:47:59.183Z,44.00
2019-03-25T21:53:00.587Z,43.90
2019-03-25T21:58:02.066Z,44.00
2019-03-25T22:03:11.476Z,44.10
2019-03-25T22:08:06.767Z,44.00
2019-03-25T22:13:08.127Z,44.10
2019-03-25T22:18:09.470Z,44.20
2019-03-25T22:23:10.847Z,44.30
2019-03-25T22:28:12.191Z,45.10
2019-03-25T22:33:25.299Z,44.30
2019-03-25T22:38:16.893Z,44.20
2019-03-25T22:43:18.228Z,44.20
2019-03-25T22:48:19.629Z,44.10
2019-03-25T22:53:21.057Z,44.00
2019-03-25T22:58:22.444Z,44.00
2019-03-25T23:03:23.795Z,43.80
2019-03-25T23:08:25.183Z,43.90
2019-03-25T23:13:26.546Z,43.90
2019-03-25T23:18:27.995Z,44.10
2019-03-25T23:23:29.362Z,44.10
2019-03-25T23:28:30.726Z,44.20
2019-03-25T23:33:32.059Z,44.20
2019-03-25T23:38:33.463Z,43.70
2019-03-25T23:43:34.793Z,44.30
2019-03-25T23:48:36.178Z,44.30
2019-03-25T23:53:37.544Z,44.40
2019-03-25T23:58:38.906Z,44.50
